Terminal Aerodrome Forecast
Issued by NWS Omaha/Valley, NE

Home | Current Version | Previous Version | Text Only | Print | Product List | Glossary Off
Versions: 1 2 3 4 5 6 7 8 9 10 11 12 13 14 15 16 17 18 19 20 21 22 23 24 25 26 27 28 29 30 31 32 33 34 35 36 37 38 39 40 41 42 43 44

000
FTUS43 KOAX 201612 AAB
TAFOFK
TAF AMD
KOFK 201612Z 2016/2112 18006KT 4SM BR OVC004
     FM201800 18009KT P6SM OVC012
      TEMPO 2100/2104 4SM BR
     FM210400 21006KT 5SM BR OVC009
      TEMPO 2106/2110 2SM BR
     FM211000 21006KT 4SM BR OVC005=

USA.gov is the U.S. government's official web portal to all federal, state and local government web resources and services.